Time;durP1;ratioP1;P1;durP2;ratioP2;P2;SDS_P1;SDS_P2;PMS_P1;PMS_P2;Temp;Humidity;BMP_temperature;BMP_pressure;BME280_temperature;BME280_humidity;BME280_pressure;Samples;Min_cycle;Max_cycle;Signal;HPM_P1;HPM_P2
2023/10/05 00:02:08;;;;;;;22.63;19.52;;;12.60;99.90;;;;;;4930447;28;20039;-73
2023/10/05 00:04:42;;;;;;;23.33;19.08;;;12.60;99.90;;;;;;4935115;28;20051;-74
2023/10/05 00:07:19;;;;;;;22.70;19.00;;;12.70;99.90;;;;;;4919916;29;20138;-73
2023/10/05 00:09:47;;;;;;;20.48;18.42;;;12.70;99.90;;;;;;4936272;28;20074;-73
2023/10/05 00:12:22;;;;;;;23.05;19.98;;;12.70;99.90;;;;;;4935420;28;20197;-74
2023/10/05 00:15:04;;;;;;;27.35;19.75;;;12.80;99.90;;;;;;4934654;28;20043;-73
2023/10/05 00:17:32;;;;;;;21.13;18.70;;;12.80;99.90;;;;;;4918302;28;20110;-74
2023/10/05 00:19:59;;;;;;;27.60;19.27;;;12.80;99.90;;;;;;4930244;28;21758;-72
2023/10/05 00:22:26;;;;;;;22.85;19.50;;;12.80;99.90;;;;;;4899765;28;20142;-75
2023/10/05 00:24:53;;;;;;;21.85;19.52;;;12.80;99.90;;;;;;4932192;28;20049;-73
2023/10/05 00:27:20;;;;;;;20.40;18.40;;;12.80;99.90;;;;;;4917573;28;20054;-72
2023/10/05 00:29:54;;;;;;;21.45;18.15;;;12.80;99.90;;;;;;4929604;28;20047;-72
2023/10/05 00:32:47;;;;;;;19.75;18.02;;;12.80;99.90;;;;;;4901319;28;20039;-73
2023/10/05 00:35:16;;;;;;;24.58;18.60;;;12.80;99.90;;;;;;4922616;28;20138;-74
2023/10/05 00:37:47;;;;;;;21.38;19.17;;;12.80;99.90;;;;;;4914677;28;20050;-72
2023/10/05 00:40:27;;;;;;;23.80;19.42;;;12.80;99.90;;;;;;4920475;29;20047;-73
2023/10/05 00:43:01;;;;;;;20.55;18.05;;;12.90;99.90;;;;;;4910464;28;20552;-73
2023/10/05 00:45:31;;;;;;;22.83;19.98;;;12.80;99.90;;;;;;4934073;28;20067;-73
2023/10/05 00:48:09;;;;;;;20.90;18.73;;;12.70;99.90;;;;;;4931767;28;20047;-75
2023/10/05 00:50:36;;;;;;;29.50;19.15;;;12.70;99.90;;;;;;4932513;28;20055;-73
2023/10/05 00:53:07;;;;;;;23.40;19.30;;;12.70;99.90;;;;;;4898613;28;20070;-73
2023/10/05 00:55:36;;;;;;;24.42;19.15;;;12.60;99.90;;;;;;4933735;28;20043;-74
2023/10/05 00:58:12;;;;;;;21.17;18.88;;;12.60;99.90;;;;;;4914962;28;20054;-73
2023/10/05 01:00:51;;;;;;;20.88;17.98;;;12.50;99.90;;;;;;4935086;28;20072;-73
2023/10/05 01:03:35;;;;;;;22.55;18.42;;;12.60;99.90;;;;;;4936898;28;20062;-73
2023/10/05 01:06:21;;;;;;;22.52;18.77;;;12.50;99.90;;;;;;4932107;28;20497;-74
2023/10/05 01:08:54;;;;;;;21.52;18.70;;;12.40;99.90;;;;;;4918563;28;20066;-72
2023/10/05 01:11:29;;;;;;;23.20;18.58;;;12.40;99.90;;;;;;4905757;28;20059;-72
2023/10/05 01:14:00;;;;;;;24.77;18.42;;;12.40;99.90;;;;;;4934695;28;20071;-72
2023/10/05 01:16:31;;;;;;;27.83;18.25;;;12.40;99.90;;;;;;4922118;28;20477;-72
2023/10/05 01:19:07;;;;;;;22.35;18.05;;;12.30;99.90;;;;;;4919477;28;20055;-72
2023/10/05 01:21:35;;;;;;;22.17;17.90;;;12.30;99.90;;;;;;4921484;28;20058;-73
2023/10/05 01:24:04;;;;;;;19.08;17.20;;;12.30;99.90;;;;;;4919245;28;20546;-72
2023/10/05 01:26:37;;;;;;;20.60;18.63;;;12.30;99.90;;;;;;4937428;28;20634;-74
2023/10/05 01:29:04;;;;;;;22.70;17.52;;;12.20;99.90;;;;;;4920556;28;20092;-72
2023/10/05 01:31:32;;;;;;;19.92;17.88;;;12.30;99.90;;;;;;4922689;28;20119;-72
2023/10/05 01:34:01;;;;;;;19.00;17.10;;;12.30;99.90;;;;;;4920587;28;20043;-71
2023/10/05 01:36:28;;;;;;;23.00;17.83;;;12.20;99.90;;;;;;4938259;28;20514;-72
2023/10/05 01:39:00;;;;;;;20.75;18.42;;;12.20;99.90;;;;;;4932271;28;20478;-72
2023/10/05 01:41:27;;;;;;;18.90;17.10;;;12.20;99.90;;;;;;4921838;28;20519;-72
2023/10/05 01:43:56;;;;;;;29.98;18.30;;;12.20;99.90;;;;;;4900798;29;20047;-72
2023/10/05 01:46:23;;;;;;;21.88;18.17;;;12.10;99.90;;;;;;4912599;28;20047;-73
2023/10/05 01:48:51;;;;;;;25.13;19.55;;;12.10;99.90;;;;;;4936417;28;20044;-72
2023/10/05 01:51:23;;;;;;;20.77;16.70;;;12.10;99.90;;;;;;4927600;28;20608;-72
2023/10/05 01:54:11;;;;;;;23.50;17.30;;;12.10;99.90;;;;;;4934340;28;20054;-72
2023/10/05 01:56:39;;;;;;;21.15;17.08;;;12.10;99.90;;;;;;4936268;28;20498;-72
2023/10/05 01:59:07;;;;;;;24.08;17.50;;;12.10;99.90;;;;;;4934290;28;20063;-72
2023/10/05 02:01:36;;;;;;;22.50;17.98;;;12.10;99.90;;;;;;4934389;28;20054;-71
2023/10/05 02:04:05;;;;;;;22.58;18.48;;;12.10;99.90;;;;;;4934758;28;20043;-72
2023/10/05 02:06:39;;;;;;;20.55;17.42;;;12.10;99.90;;;;;;4936500;28;20110;-72
2023/10/05 02:09:10;;;;;;;20.17;17.08;;;12.10;99.90;;;;;;4918844;28;20142;-72
2023/10/05 02:11:40;;;;;;;20.40;18.35;;;12.10;99.90;;;;;;4934967;28;20051;-72
2023/10/05 02:14:12;;;;;;;20.58;17.77;;;12.10;99.90;;;;;;4918159;28;20055;-71
2023/10/05 02:16:39;;;;;;;22.98;18.23;;;12.10;99.90;;;;;;4919320;28;20039;-72
2023/10/05 02:19:07;;;;;;;26.15;18.38;;;12.10;99.90;;;;;;4933306;28;20058;-72
2023/10/05 02:21:37;;;;;;;19.83;17.77;;;12.10;99.90;;;;;;4937214;28;20449;-73
2023/10/05 02:24:18;;;;;;;25.80;19.70;;;12.10;99.90;;;;;;4933798;28;20051;-71
2023/10/05 02:29:27;;;;;;;19.92;17.90;;;12.00;99.90;;;;;;4936808;28;20039;-71
2023/10/05 02:31:57;;;;;;;20.10;16.67;;;12.00;99.90;;;;;;4933806;28;20695;-71
2023/10/05 02:35:29;;;;;;;19.17;17.23;;;12.00;99.90;;;;;;4937404;28;20047;-72
2023/10/05 02:37:22;;;;;;;22.40;17.30;;;12.00;99.90;;;;;;4930453;28;20055;-72
2023/10/05 02:39:49;;;;;;;20.48;16.85;;;12.00;99.90;;;;;;4920544;28;20129;-71
2023/10/05 02:42:21;;;;;;;19.98;18.08;;;11.90;99.90;;;;;;4911935;28;20698;-72
2023/10/05 02:44:49;;;;;;;18.55;16.98;;;12.00;99.90;;;;;;4922790;28;20054;-72
2023/10/05 02:47:22;;;;;;;20.90;17.10;;;11.90;99.90;;;;;;4920839;28;20046;-71
2023/10/05 02:49:50;;;;;;;18.42;16.52;;;12.00;99.90;;;;;;4904106;28;20135;-71
2023/10/05 02:52:16;;;;;;;23.25;16.92;;;12.00;99.90;;;;;;4910415;28;20039;-71
2023/10/05 02:54:47;;;;;;;19.00;16.10;;;11.90;99.90;;;;;;4936528;28;20047;-72
2023/10/05 02:57:20;;;;;;;18.40;16.58;;;11.90;99.90;;;;;;4918048;28;20055;-71
2023/10/05 02:59:47;;;;;;;18.90;15.73;;;11.90;99.90;;;;;;4937079;28;20063;-71
2023/10/05 03:02:17;;;;;;;18.70;17.02;;;11.90;99.90;;;;;;4931764;28;21542;-71
2023/10/05 03:04:45;;;;;;;18.83;16.15;;;12.00;99.90;;;;;;4934578;28;20071;-71
2023/10/05 03:07:16;;;;;;;19.25;16.42;;;12.00;99.90;;;;;;4916803;28;20047;-72
2023/10/05 03:09:49;;;;;;;20.83;16.00;;;12.00;99.90;;;;;;4936511;28;20588;-72
2023/10/05 03:12:20;;;;;;;18.33;16.60;;;12.00;99.90;;;;;;4915245;28;20062;-72
2023/10/05 03:14:50;;;;;;;18.15;16.30;;;12.00;99.90;;;;;;4914623;28;20043;-71
2023/10/05 03:17:22;;;;;;;17.40;15.57;;;12.00;99.90;;;;;;4935405;28;20234;-71
2023/10/05 03:19:50;;;;;;;18.05;15.93;;;12.00;99.90;;;;;;4936603;28;20049;-71
2023/10/05 03:22:18;;;;;;;19.88;16.23;;;11.90;99.90;;;;;;4932151;28;20749;-72
2023/10/05 03:24:45;;;;;;;22.17;17.20;;;11.90;99.90;;;;;;4933070;28;20067;-72
2023/10/05 03:27:14;;;;;;;17.23;15.65;;;11.90;99.90;;;;;;4914585;28;20056;-71
2023/10/05 03:29:45;;;;;;;20.70;15.45;;;11.90;99.90;;;;;;4921257;28;20174;-71
2023/10/05 03:32:14;;;;;;;17.00;15.32;;;11.90;99.90;;;;;;4915097;28;20690;-72
2023/10/05 03:34:42;;;;;;;16.80;15.00;;;11.90;99.90;;;;;;4917612;28;20130;-71
2023/10/05 03:37:13;;;;;;;16.70;15.02;;;11.90;99.90;;;;;;4915802;28;20493;-72
2023/10/05 03:39:53;;;;;;;18.88;15.93;;;11.90;99.90;;;;;;4932734;28;20057;-71
2023/10/05 03:42:22;;;;;;;18.50;15.43;;;12.00;99.90;;;;;;4900557;28;20046;-73
2023/10/05 03:45:08;;;;;;;18.42;14.85;;;12.00;99.90;;;;;;4936182;28;20043;-72
2023/10/05 03:47:39;;;;;;;17.25;15.50;;;12.00;99.90;;;;;;4917318;28;20106;-72
2023/10/05 03:50:16;;;;;;;18.23;16.20;;;12.00;99.90;;;;;;4916381;28;20178;-72
2023/10/05 03:52:47;;;;;;;17.15;15.32;;;12.10;99.90;;;;;;4920840;28;20156;-71
2023/10/05 03:55:20;;;;;;;17.48;15.80;;;12.10;99.90;;;;;;4921084;28;20385;-71
2023/10/05 03:57:51;;;;;;;24.25;17.83;;;12.10;99.90;;;;;;4934641;28;20043;-72
2023/10/05 04:02:54;;;;;;;17.58;15.35;;;12.10;99.90;;;;;;4918721;28;20576;-72
2023/10/05 04:05:22;;;;;;;17.27;15.48;;;12.10;99.90;;;;;;4934714;28;20067;-71
2023/10/05 04:07:52;;;;;;;18.50;15.43;;;12.10;99.90;;;;;;4936143;28;20039;-71
2023/10/05 04:10:38;;;;;;;16.52;14.93;;;12.10;99.90;;;;;;4931120;28;20055;-73
2023/10/05 04:13:05;;;;;;;20.63;15.85;;;12.10;99.90;;;;;;4915888;28;20042;-71
2023/10/05 04:15:32;;;;;;;18.23;16.33;;;12.10;99.90;;;;;;4921916;28;20051;-71
2023/10/05 04:17:58;;;;;;;16.50;15.05;;;12.10;99.90;;;;;;4936402;28;20039;-73
2023/10/05 04:20:28;;;;;;;19.83;15.63;;;12.10;99.90;;;;;;4930333;28;20035;-72
2023/10/05 04:22:56;;;;;;;20.98;16.00;;;12.10;99.90;;;;;;4936870;28;20742;-72
2023/10/05 04:25:23;;;;;;;21.63;16.35;;;12.10;99.90;;;;;;4933263;28;21334;-72
2023/10/05 04:27:50;;;;;;;16.75;15.00;;;12.10;99.90;;;;;;4934435;28;20153;-72
2023/10/05 04:30:20;;;;;;;17.80;15.88;;;12.10;99.90;;;;;;4917649;28;20142;-72
2023/10/05 04:32:49;;;;;;;21.70;15.73;;;12.10;99.90;;;;;;4924144;28;20049;-72
2023/10/05 04:35:26;;;;;;;23.95;15.90;;;12.10;99.90;;;;;;4917827;28;20050;-72
2023/10/05 04:37:54;;;;;;;17.20;15.40;;;12.10;99.90;;;;;;4934303;28;20146;-72
2023/10/05 04:40:24;;;;;;;16.83;15.13;;;12.10;99.90;;;;;;4934415;28;20720;-72
2023/10/05 04:42:52;;;;;;;16.88;14.60;;;12.10;99.90;;;;;;4914510;28;20479;-72
2023/10/05 04:45:23;;;;;;;21.23;15.93;;;12.10;99.90;;;;;;4933644;28;20043;-72
2023/10/05 04:47:58;;;;;;;18.73;16.45;;;12.10;99.90;;;;;;4936750;28;20690;-72
2023/10/05 04:50:26;;;;;;;19.88;16.23;;;12.20;99.90;;;;;;4915718;28;20051;-72
2023/10/05 04:52:54;;;;;;;22.45;16.67;;;12.20;99.90;;;;;;4925432;28;20334;-72
2023/10/05 04:55:31;;;;;;;20.17;16.67;;;12.20;99.90;;;;;;4921900;28;20042;-72
2023/10/05 05:08:35;;;;;;;18.58;15.73;;;12.20;99.90;;;;;;4941815;28;20118;-72
2023/10/05 05:11:08;;;;;;;17.73;16.25;;;12.20;99.90;;;;;;4909050;28;20138;-72
2023/10/05 05:13:36;;;;;;;20.40;17.65;;;12.20;99.90;;;;;;4926892;28;20047;-72
2023/10/05 05:16:05;;;;;;;18.48;16.67;;;12.20;99.90;;;;;;4924301;28;20340;-71
2023/10/05 05:18:32;;;;;;;18.17;16.38;;;12.20;99.90;;;;;;4935652;28;20134;-72
2023/10/05 05:20:59;;;;;;;17.80;16.10;;;12.10;99.90;;;;;;4905932;28;20066;-72
2023/10/05 05:23:26;;;;;;;18.65;16.77;;;12.10;99.90;;;;;;4920936;28;20175;-71
2023/10/05 05:25:54;;;;;;;22.58;16.27;;;12.10;99.90;;;;;;4937856;28;20044;-73
2023/10/05 05:28:21;;;;;;;17.67;16.00;;;12.10;99.90;;;;;;4938258;28;20039;-73
2023/10/05 05:30:48;;;;;;;22.85;16.67;;;12.10;99.90;;;;;;4938997;28;20118;-72
2023/10/05 05:33:17;;;;;;;20.23;17.15;;;12.10;99.90;;;;;;4921671;28;20446;-72
2023/10/05 05:35:44;;;;;;;19.20;16.98;;;12.10;99.90;;;;;;4919223;28;20046;-72
2023/10/05 05:38:11;;;;;;;22.60;17.10;;;12.10;99.90;;;;;;4916890;28;20122;-73
2023/10/05 05:40:38;;;;;;;27.20;17.60;;;12.10;99.90;;;;;;4938009;28;20059;-72
2023/10/05 05:43:11;;;;;;;21.77;17.33;;;12.10;99.90;;;;;;4920350;28;20142;-72
2023/10/05 05:45:44;;;;;;;19.33;16.80;;;12.10;99.90;;;;;;4921220;28;20075;-72
2023/10/05 05:48:14;;;;;;;23.98;17.30;;;12.10;99.90;;;;;;4936079;28;20047;-71
2023/10/05 05:50:42;;;;;;;18.33;15.95;;;12.10;99.90;;;;;;4937415;28;20043;-72
2023/10/05 05:53:13;;;;;;;19.02;17.23;;;12.10;99.90;;;;;;4937895;28;20082;-72
2023/10/05 05:55:43;;;;;;;24.60;17.67;;;12.10;99.90;;;;;;4936461;28;20047;-72
2023/10/05 05:58:14;;;;;;;21.90;17.58;;;12.10;99.90;;;;;;4919909;28;20047;-72
2023/10/05 06:00:42;;;;;;;30.42;17.38;;;12.10;99.90;;;;;;4918968;28;20047;-72
2023/10/05 06:03:11;;;;;;;18.95;16.90;;;12.10;99.90;;;;;;4939286;28;20047;-72
2023/10/05 06:05:39;;;;;;;18.65;16.45;;;12.20;99.90;;;;;;4920329;28;20593;-72
2023/10/05 06:08:10;;;;;;;19.23;17.30;;;12.10;99.90;;;;;;4922938;29;20051;-72
2023/10/05 06:10:37;;;;;;;18.52;17.08;;;12.20;99.90;;;;;;4918995;28;20050;-72
2023/10/05 06:13:11;;;;;;;19.33;17.63;;;12.10;99.90;;;;;;4923721;28;20458;-73
2023/10/05 06:15:38;;;;;;;21.50;18.02;;;12.20;99.90;;;;;;4935329;28;20054;-72
2023/10/05 06:18:05;;;;;;;18.60;16.92;;;12.10;99.90;;;;;;4920456;28;20124;-72
2023/10/05 06:20:32;;;;;;;18.60;17.05;;;12.20;99.90;;;;;;4933490;28;20066;-72
2023/10/05 06:23:00;;;;;;;18.60;16.73;;;12.20;99.90;;;;;;4926033;28;20039;-72
2023/10/05 06:25:28;;;;;;;23.25;16.92;;;12.20;99.90;;;;;;4917291;28;20051;-72
2023/10/05 06:27:55;;;;;;;23.33;16.58;;;12.20;99.90;;;;;;4935052;28;20111;-73
2023/10/05 06:30:22;;;;;;;21.08;17.77;;;12.20;99.90;;;;;;4916295;28;20055;-72
2023/10/05 06:32:49;;;;;;;18.13;16.38;;;12.10;99.90;;;;;;4919038;28;20043;-72
2023/10/05 06:35:17;;;;;;;18.92;17.13;;;12.20;99.90;;;;;;4917332;28;20075;-72
2023/10/05 06:37:45;;;;;;;20.58;16.63;;;12.10;99.90;;;;;;4938281;28;20054;-71
2023/10/05 06:40:21;;;;;;;19.33;17.10;;;12.10;99.90;;;;;;4936684;28;20422;-72
2023/10/05 06:42:49;;;;;;;21.65;17.17;;;12.20;99.90;;;;;;4935795;28;20055;-72
2023/10/05 06:45:19;;;;;;;18.20;16.58;;;12.20;99.90;;;;;;4918554;28;20051;-71
2023/10/05 06:47:46;;;;;;;19.75;17.15;;;12.30;99.90;;;;;;4940452;28;20043;-72
2023/10/05 06:50:12;;;;;;;22.25;16.88;;;12.30;99.90;;;;;;4935255;28;20035;-72
2023/10/05 06:52:46;;;;;;;25.70;16.48;;;12.30;99.90;;;;;;4933592;28;20071;-72
2023/10/05 06:55:17;;;;;;;18.33;16.63;;;12.30;99.90;;;;;;4919303;29;20126;-72
2023/10/05 06:57:45;;;;;;;19.80;17.33;;;12.30;99.90;;;;;;4934863;28;20084;-72
2023/10/05 07:00:20;;;;;;;18.10;16.30;;;12.30;99.90;;;;;;4934732;28;20110;-71
2023/10/05 07:02:51;;;;;;;;;;;12.40;99.90;;;;;;4936744;28;20058;-71
2023/10/05 07:05:18;;;;;;;24.08;17.65;;;12.40;99.90;;;;;;4935011;28;19926;-70
2023/10/05 07:07:45;;;;;;;22.42;18.45;;;12.40;99.90;;;;;;4917922;28;20043;-71
2023/10/05 07:10:14;;;;;;;23.38;17.15;;;12.40;99.90;;;;;;4919317;29;20059;-71
2023/10/05 07:12:44;;;;;;;18.95;16.80;;;12.40;99.90;;;;;;4930346;28;21602;-72
2023/10/05 07:15:12;;;;;;;20.58;17.63;;;12.50;99.90;;;;;;4903280;28;20047;-72
2023/10/05 07:17:39;;;;;;;19.33;17.33;;;12.60;99.90;;;;;;4925193;28;20200;-71
2023/10/05 07:20:12;;;;;;;22.20;19.08;;;12.60;99.90;;;;;;4937488;28;20677;-72
2023/10/05 07:22:40;;;;;;;23.50;18.85;;;12.60;99.90;;;;;;4916241;28;20170;-72
2023/10/05 07:25:10;;;;;;;25.45;19.33;;;12.80;99.90;;;;;;4924655;28;20201;-71
2023/10/05 07:27:39;;;;;;;26.25;18.58;;;12.80;99.90;;;;;;4920724;28;20541;-71
2023/10/05 07:30:08;;;;;;;20.10;18.23;;;12.90;99.90;;;;;;4937547;28;20035;-70
2023/10/05 07:32:36;;;;;;;24.08;19.67;;;13.10;99.90;;;;;;4914910;28;20758;-71
2023/10/05 07:35:07;;;;;;;25.85;20.13;;;13.10;99.90;;;;;;4943279;28;20039;-72
2023/10/05 07:37:35;;;;;;;21.48;19.00;;;13.00;99.90;;;;;;4929374;28;20123;-71
2023/10/05 07:40:04;;;;;;;20.63;18.45;;;13.00;99.90;;;;;;4937063;28;20071;-71
2023/10/05 07:42:31;;;;;;;21.05;19.17;;;13.20;99.90;;;;;;4911721;28;20456;-71
2023/10/05 07:44:59;;;;;;;20.17;18.17;;;13.20;99.90;;;;;;4939008;28;20103;-70
2023/10/05 07:47:26;;;;;;;24.98;19.60;;;13.20;99.90;;;;;;4933738;28;20045;-71
2023/10/05 07:49:53;;;;;;;20.05;18.33;;;13.30;99.90;;;;;;4936140;28;20039;-71
2023/10/05 07:52:21;;;;;;;20.40;18.30;;;13.20;99.90;;;;;;4918695;29;20065;-70
2023/10/05 07:54:48;;;;;;;22.02;19.83;;;13.30;99.90;;;;;;4931962;28;20047;-71
2023/10/05 07:57:17;;;;;;;21.85;19.55;;;13.40;99.90;;;;;;4935879;28;20572;-72
2023/10/05 07:59:44;;;;;;;22.02;19.85;;;13.50;99.90;;;;;;4916467;28;20115;-72
2023/10/05 08:02:11;;;;;;;22.08;19.50;;;13.40;99.90;;;;;;4901555;28;20630;-73
2023/10/05 08:04:38;;;;;;;21.45;19.58;;;13.40;99.90;;;;;;4932825;28;20046;-72
2023/10/05 08:07:05;;;;;;;21.85;19.83;;;13.50;99.90;;;;;;4935838;28;20098;-72
2023/10/05 08:09:32;;;;;;;25.05;21.73;;;13.60;99.90;;;;;;4933513;28;20611;-72
2023/10/05 08:11:59;;;;;;;23.05;20.63;;;13.60;99.90;;;;;;4934082;28;20070;-72
2023/10/05 08:14:27;;;;;;;25.17;20.50;;;13.60;99.90;;;;;;4934534;28;20047;-73
2023/10/05 08:16:55;;;;;;;23.27;20.92;;;13.50;99.90;;;;;;4917792;28;20050;-72
2023/10/05 08:19:25;;;;;;;25.05;20.13;;;13.50;99.90;;;;;;4924007;29;20047;-71
2023/10/05 08:21:53;;;;;;;21.95;20.00;;;13.50;99.90;;;;;;4934038;28;20305;-72
2023/10/05 08:24:20;;;;;;;22.45;20.30;;;13.50;99.90;;;;;;4936437;28;20556;-72
2023/10/05 08:26:51;;;;;;;22.80;20.08;;;13.60;99.90;;;;;;4915480;28;20114;-71
2023/10/05 08:29:18;;;;;;;22.05;19.95;;;13.60;99.90;;;;;;4933408;28;20051;-72
2023/10/05 08:31:46;;;;;;;23.17;20.70;;;13.60;99.90;;;;;;4915832;28;20055;-72
2023/10/05 08:34:20;;;;;;;25.27;20.38;;;13.60;99.90;;;;;;4905242;29;20055;-72
2023/10/05 08:36:53;;;;;;;30.25;21.15;;;13.60;99.90;;;;;;4933100;28;20158;-72
2023/10/05 08:39:25;;;;;;;22.25;20.02;;;13.70;99.90;;;;;;4915520;29;20063;-71
2023/10/05 08:42:06;;;;;;;21.60;19.55;;;13.70;99.90;;;;;;4935888;28;20470;-71
2023/10/05 08:44:38;;;;;;;23.92;20.33;;;13.80;99.90;;;;;;4930864;28;20086;-72
2023/10/05 08:47:10;;;;;;;22.90;20.58;;;13.70;99.90;;;;;;4935002;28;20039;-71
2023/10/05 08:49:39;;;;;;;22.50;19.70;;;13.80;99.90;;;;;;4938531;28;20065;-71
2023/10/05 08:52:19;;;;;;;27.40;18.80;;;13.80;99.90;;;;;;4937294;28;20414;-72
2023/10/05 08:54:51;;;;;;;21.35;19.38;;;13.80;99.90;;;;;;4931575;28;20146;-72
2023/10/05 08:57:17;;;;;;;21.15;18.92;;;13.70;99.90;;;;;;4932394;28;20057;-72
2023/10/05 08:59:47;;;;;;;22.67;20.33;;;13.70;99.90;;;;;;4932693;28;20058;-71
2023/10/05 09:02:21;;;;;;;23.48;19.33;;;13.80;99.90;;;;;;4932356;28;20057;-71
2023/10/05 09:04:57;;;;;;;21.00;18.88;;;13.90;99.90;;;;;;4933524;28;21119;-71
2023/10/05 09:07:35;;;;;;;21.52;19.50;;;13.90;99.90;;;;;;4919533;29;20154;-71
2023/10/05 09:10:24;;;;;;;24.30;20.55;;;13.90;99.90;;;;;;4936934;28;20059;-70
2023/10/05 09:12:58;;;;;;;25.23;20.08;;;13.90;99.90;;;;;;4913533;28;20824;-70
2023/10/05 09:15:29;;;;;;;25.35;19.83;;;14.00;99.90;;;;;;4918367;29;20051;-70
2023/10/05 09:20:32;;;;;;;21.63;19.40;;;13.90;99.90;;;;;;4943112;28;20138;-69
2023/10/05 09:23:03;;;;;;;23.55;20.23;;;13.90;99.90;;;;;;4936569;28;20047;-69
2023/10/05 09:25:34;;;;;;;25.65;19.67;;;14.00;99.90;;;;;;4923948;28;20055;-71
2023/10/05 09:28:16;;;;;;;22.15;19.73;;;14.10;99.90;;;;;;4934253;28;20757;-72
2023/10/05 09:30:55;;;;;;;24.52;19.92;;;14.20;99.90;;;;;;4914142;28;20046;-71
2023/10/05 09:33:26;;;;;;;30.88;20.45;;;14.30;99.90;;;;;;4919203;29;20047;-69
2023/10/05 09:35:57;;;;;;;22.77;20.55;;;14.40;99.90;;;;;;4934013;28;20047;-69
2023/10/05 09:38:30;;;;;;;22.52;20.08;;;14.40;99.90;;;;;;4942083;28;20118;-69
2023/10/05 09:40:59;;;;;;;21.52;19.38;;;14.40;99.90;;;;;;4920583;28;20074;-69
2023/10/05 09:43:30;;;;;;;24.05;21.52;;;14.50;99.90;;;;;;4934171;28;20139;-70
2023/10/05 09:45:58;;;;;;;25.77;21.42;;;14.40;99.90;;;;;;4938406;28;20058;-71
2023/10/05 09:48:26;;;;;;;28.85;21.98;;;14.60;99.90;;;;;;4943150;28;20517;-71
2023/10/05 09:50:53;;;;;;;23.52;21.10;;;14.60;99.90;;;;;;4919483;28;20544;-71
2023/10/05 09:53:20;;;;;;;24.30;21.73;;;14.50;99.90;;;;;;4938022;28;20054;-71
2023/10/05 09:55:53;;;;;;;26.83;20.95;;;14.50;99.90;;;;;;4932935;28;20039;-71
2023/10/05 09:58:24;;;;;;;26.98;22.05;;;14.50;99.90;;;;;;4936006;28;20675;-71
2023/10/05 10:00:55;;;;;;;24.67;22.10;;;14.60;99.90;;;;;;4932655;28;20053;-71
2023/10/05 10:03:23;;;;;;;22.75;20.75;;;14.50;99.90;;;;;;4912244;29;20051;-70
2023/10/05 10:06:10;;;;;;;23.80;21.67;;;14.50;99.90;;;;;;4921497;28;20074;-71
2023/10/05 10:08:51;;;;;;;22.65;20.60;;;14.50;99.90;;;;;;4908523;28;20542;-70
2023/10/05 10:11:19;;;;;;;24.13;21.92;;;14.60;99.90;;;;;;4926819;28;20082;-72
2023/10/05 10:14:04;;;;;;;25.15;21.83;;;14.70;99.90;;;;;;4936180;28;20035;-71
2023/10/05 10:16:39;;;;;;;24.02;21.80;;;14.70;99.90;;;;;;4901477;28;20047;-70
2023/10/05 10:19:19;;;;;;;24.83;22.33;;;14.60;99.90;;;;;;4916524;28;20054;-70
2023/10/05 10:22:00;;;;;;;24.38;22.17;;;14.70;99.90;;;;;;4918204;28;20044;-69
2023/10/05 10:24:29;;;;;;;28.20;22.88;;;14.90;99.90;;;;;;4920700;29;20688;-70
2023/10/05 10:27:07;;;;;;;27.45;23.10;;;14.90;99.90;;;;;;4930059;28;21673;-71
2023/10/05 10:29:55;;;;;;;24.95;22.20;;;14.80;99.90;;;;;;4933070;28;20102;-72
2023/10/05 10:32:32;;;;;;;25.42;22.88;;;14.70;99.90;;;;;;4932970;28;20056;-71
2023/10/05 10:37:42;;;;;;;23.90;21.55;;;14.70;99.90;;;;;;4932351;28;20142;-71
2023/10/05 10:42:54;;;;;;;27.02;22.33;;;14.60;99.90;;;;;;4908126;28;20060;-69
2023/10/05 10:45:32;;;;;;;25.45;22.88;;;14.60;99.90;;;;;;4932720;28;20399;-71
2023/10/05 10:48:21;;;;;;;24.83;22.42;;;14.60;99.90;;;;;;4929767;28;20573;-71
2023/10/05 10:50:52;;;;;;;24.67;21.95;;;14.70;99.90;;;;;;4930482;28;20078;-70
2023/10/05 10:53:25;;;;;;;27.33;21.70;;;14.80;99.90;;;;;;4924662;29;20074;-71
2023/10/05 10:55:58;;;;;;;24.38;21.98;;;14.90;99.90;;;;;;4931109;28;20047;-71
2023/10/05 10:58:30;;;;;;;29.02;22.00;;;14.90;99.90;;;;;;4936279;28;20055;-70
2023/10/05 11:01:22;;;;;;;27.13;21.33;;;14.90;99.90;;;;;;4913483;28;20051;-72
2023/10/05 11:03:55;;;;;;;24.73;22.20;;;14.90;99.90;;;;;;4929434;28;20630;-71
2023/10/05 11:06:28;;;;;;;24.05;21.55;;;14.80;99.90;;;;;;4933104;28;20704;-71
2023/10/05 11:09:09;;;;;;;24.40;21.83;;;14.80;99.90;;;;;;4929545;28;20039;-71
2023/10/05 11:11:39;;;;;;;24.00;21.48;;;14.90;99.90;;;;;;4916522;28;20189;-71
2023/10/05 11:14:20;;;;;;;23.63;21.35;;;15.00;99.90;;;;;;4932681;28;20114;-71
2023/10/05 11:16:59;;;;;;;24.30;21.75;;;15.10;99.90;;;;;;4928632;28;20525;-71
2023/10/05 11:19:40;;;;;;;24.25;21.65;;;15.30;99.90;;;;;;4920415;29;20054;-71
2023/10/05 11:22:11;;;;;;;23.17;20.85;;;15.30;99.90;;;;;;4921195;28;20655;-78
2023/10/05 11:25:15;;;;;;;24.00;21.08;;;15.10;99.90;;;;;;4944980;28;20052;-79
2023/10/05 11:27:44;;;;;;;21.40;19.50;;;15.00;99.90;;;;;;4924848;28;20110;-78
2023/10/05 11:30:18;;;;;;;26.08;21.98;;;15.00;99.90;;;;;;4924657;28;20102;-78
2023/10/05 11:33:05;;;;;;;24.27;21.35;;;15.00;99.90;;;;;;4919069;28;20736;-79
2023/10/05 11:35:52;;;;;;;24.85;22.27;;;15.00;99.90;;;;;;4916461;28;20071;-79
2023/10/05 11:38:21;;;;;;;24.27;21.75;;;15.00;99.90;;;;;;4936338;28;20054;-78
2023/10/05 11:40:53;;;;;;;28.45;21.63;;;15.00;99.90;;;;;;4914034;28;20118;-78
2023/10/05 11:43:20;;;;;;;23.77;21.60;;;15.00;99.90;;;;;;4908076;29;20050;-79
2023/10/05 11:46:00;;;;;;;26.80;20.85;;;14.90;99.90;;;;;;4919739;28;20043;-79
2023/10/05 11:48:40;;;;;;;23.42;21.42;;;14.90;99.90;;;;;;4930967;29;20587;-80
2023/10/05 11:51:10;;;;;;;24.05;21.98;;;14.90;99.90;;;;;;4933990;28;20047;-79
2023/10/05 11:53:37;;;;;;;25.50;22.90;;;15.00;99.90;;;;;;4934713;28;20047;-79
2023/10/05 11:56:04;;;;;;;24.10;21.60;;;15.30;99.90;;;;;;4919254;28;20470;-78
2023/10/05 11:58:40;;;;;;;23.52;21.35;;;15.50;99.90;;;;;;4921789;29;20551;-79
2023/10/05 12:01:08;;;;;;;23.88;21.80;;;15.60;99.90;;;;;;4919452;28;20605;-79
2023/10/05 12:03:43;;;;;;;24.13;21.67;;;15.70;99.90;;;;;;4921660;28;20138;-79
2023/10/05 12:06:12;;;;;;;23.75;21.50;;;15.70;99.90;;;;;;4935798;28;20059;-79
2023/10/05 12:08:41;;;;;;;24.25;22.05;;;15.70;99.90;;;;;;4924983;28;20374;-80
2023/10/05 12:11:10;;;;;;;24.58;22.08;;;15.80;99.90;;;;;;4933679;28;20688;-79
2023/10/05 12:13:38;;;;;;;24.73;22.33;;;15.60;99.90;;;;;;4926238;28;20345;-79
2023/10/05 12:16:11;;;;;;;23.55;21.67;;;15.70;99.90;;;;;;4934008;28;20051;-79
2023/10/05 12:18:41;;;;;;;24.50;22.30;;;15.70;99.90;;;;;;4937838;28;20121;-80
2023/10/05 12:21:12;;;;;;;24.50;22.27;;;15.80;99.90;;;;;;4904133;28;20055;-78
2023/10/05 12:23:39;;;;;;;26.05;23.42;;;15.80;99.90;;;;;;4923105;28;20048;-79
2023/10/05 12:26:10;;;;;;;28.23;22.20;;;15.80;99.90;;;;;;4919896;28;20051;-79
2023/10/05 12:28:40;;;;;;;25.50;23.00;;;15.90;99.90;;;;;;4922908;28;20043;-79
2023/10/05 12:31:09;;;;;;;25.13;22.52;;;15.90;99.90;;;;;;4921923;28;20906;-78
2023/10/05 12:33:40;;;;;;;26.30;23.75;;;15.80;99.90;;;;;;4922566;28;20452;-78
2023/10/05 12:36:12;;;;;;;25.52;23.25;;;15.80;99.90;;;;;;4906285;28;20046;-78
2023/10/05 12:38:39;;;;;;;25.75;23.25;;;15.70;99.90;;;;;;4925544;28;20521;-79
2023/10/05 12:41:13;;;;;;;26.17;23.88;;;15.80;99.90;;;;;;4921018;28;20276;-78
2023/10/05 12:43:41;;;;;;;25.58;23.05;;;15.70;99.90;;;;;;4923160;28;20039;-78
2023/10/05 12:46:11;;;;;;;25.75;23.30;;;15.70;99.90;;;;;;4936777;28;20051;-78
2023/10/05 12:48:39;;;;;;;26.35;24.00;;;15.70;99.90;;;;;;4923368;28;20510;-79
2023/10/05 12:51:11;;;;;;;25.40;23.10;;;15.60;99.90;;;;;;4933882;28;20047;-79
2023/10/05 12:53:38;;;;;;;27.52;24.58;;;15.60;99.90;;;;;;4923171;28;20043;-78
2023/10/05 12:56:06;;;;;;;26.65;24.13;;;15.50;99.90;;;;;;4949881;28;21815;-79
2023/10/05 12:58:33;;;;;;;25.55;23.30;;;15.40;99.90;;;;;;4951993;28;20224;-79
2023/10/05 13:01:12;;;;;;;27.00;24.48;;;15.50;99.90;;;;;;4926276;28;20047;-78
2023/10/05 13:03:39;;;;;;;26.52;23.55;;;15.60;99.90;;;;;;4914946;28;20051;-78
2023/10/05 13:06:10;;;;;;;26.45;23.95;;;15.60;99.90;;;;;;4922811;28;20044;-79
2023/10/05 13:08:43;;;;;;;27.45;25.00;;;15.50;99.90;;;;;;4927619;28;20039;-79
2023/10/05 13:11:12;;;;;;;27.45;24.00;;;15.40;99.90;;;;;;4924428;28;20070;-78
2023/10/05 13:13:39;;;;;;;26.88;24.60;;;15.60;99.90;;;;;;4945946;28;20039;-79